Time;durP1;ratioP1;P1;durP2;ratioP2;P2;SDS_P1;SDS_P2;PMS_P1;PMS_P2;Temp;Humidity;BMP_temperature;BMP_pressure;BME280_temperature;BME280_humidity;BME280_pressure;Samples;Min_cycle;Max_cycle;Signal;HPM_P1;HPM_P2
2022/04/10 00:01:20;;;;;;;14.07;1.80;;;2.50;99.90;;;;;;5048296;28;20369;-68
2022/04/10 00:03:45;;;;;;;9.88;2.10;;;2.50;99.90;;;;;;5051256;28;20118;-72
2022/04/10 00:06:11;;;;;;;14.05;1.65;;;2.50;99.90;;;;;;5049712;28;20175;-68
2022/04/10 00:08:37;;;;;;;8.95;1.70;;;2.50;99.90;;;;;;5048886;28;20040;-68
2022/04/10 00:11:03;;;;;;;13.95;1.70;;;2.40;99.90;;;;;;5051026;28;20037;-68
2022/04/10 00:13:29;;;;;;;7.03;1.65;;;2.40;99.90;;;;;;5048159;28;20472;-68
2022/04/10 00:15:54;;;;;;;11.70;1.33;;;2.40;99.90;;;;;;5052064;28;20037;-68
2022/04/10 00:18:20;;;;;;;7.25;1.10;;;2.40;99.90;;;;;;5048040;28;20033;-68
2022/04/10 00:20:46;;;;;;;7.60;1.50;;;2.40;99.90;;;;;;5048953;28;20032;-68
2022/04/10 00:23:11;;;;;;;10.80;1.52;;;2.30;99.90;;;;;;5052272;28;20132;-68
2022/04/10 00:25:37;;;;;;;8.73;1.40;;;2.30;99.90;;;;;;5050167;28;20198;-68
2022/04/10 00:28:03;;;;;;;7.85;1.30;;;2.30;99.90;;;;;;5051352;28;20053;-68
2022/04/10 00:30:32;;;;;;;8.90;1.33;;;2.30;99.90;;;;;;5048527;28;20062;-68
2022/04/10 00:32:58;;;;;;;11.10;2.00;;;2.30;99.90;;;;;;5048903;28;20129;-68
2022/04/10 00:35:24;;;;;;;16.40;2.15;;;2.30;99.90;;;;;;5048912;28;20396;-68
2022/04/10 00:37:50;;;;;;;13.98;2.38;;;2.30;99.90;;;;;;5047917;28;20037;-68
2022/04/10 00:40:15;;;;;;;11.18;1.55;;;2.30;99.90;;;;;;5048796;28;20694;-68
2022/04/10 00:42:47;;;;;;;10.02;1.95;;;2.30;99.90;;;;;;5050826;28;20033;-68
2022/04/10 00:45:13;;;;;;;9.85;2.00;;;2.30;99.90;;;;;;5051249;28;20040;-68
2022/04/10 00:47:38;;;;;;;9.80;1.65;;;2.20;99.90;;;;;;5047392;28;20151;-68
2022/04/10 00:50:06;;;;;;;13.32;2.03;;;2.30;99.90;;;;;;5031893;28;20045;-68
2022/04/10 00:52:32;;;;;;;13.45;2.03;;;2.30;99.90;;;;;;5048965;28;20041;-68
2022/04/10 00:54:58;;;;;;;16.10;2.72;;;2.40;99.90;;;;;;5046132;28;20500;-68
2022/04/10 00:57:24;;;;;;;14.75;2.03;;;2.40;99.90;;;;;;5047006;28;20145;-68
2022/04/10 00:59:51;;;;;;;12.95;2.17;;;2.50;99.90;;;;;;5048940;28;20098;-68
2022/04/10 01:02:17;;;;;;;9.43;2.00;;;2.50;99.90;;;;;;5049852;28;20045;-68
2022/04/10 01:04:43;;;;;;;10.35;1.60;;;2.50;99.90;;;;;;5052077;28;20033;-68
2022/04/10 01:07:12;;;;;;;11.90;2.30;;;2.50;99.90;;;;;;5048063;28;20052;-68
2022/04/10 01:09:39;;;;;;;12.98;2.20;;;2.50;99.90;;;;;;5047560;28;20504;-68
2022/04/10 01:12:06;;;;;;;12.80;2.70;;;2.60;99.90;;;;;;5047958;28;20958;-68
2022/04/10 01:14:32;;;;;;;11.20;2.15;;;2.50;99.90;;;;;;5029246;28;20057;-68
2022/04/10 01:16:59;;;;;;;11.50;2.00;;;2.50;99.90;;;;;;5051506;28;20090;-68
2022/04/10 01:19:25;;;;;;;10.80;2.10;;;2.50;99.90;;;;;;5049159;28;20045;-68
2022/04/10 01:21:53;;;;;;;8.27;1.65;;;2.50;99.90;;;;;;5049181;28;20049;-68
2022/04/10 01:24:20;;;;;;;10.27;1.88;;;2.50;99.90;;;;;;5048137;28;20506;-68
2022/04/10 01:26:46;;;;;;;11.82;2.20;;;2.50;99.90;;;;;;5047370;28;20044;-68
2022/04/10 01:29:14;;;;;;;14.57;2.35;;;2.50;99.90;;;;;;5046983;28;20037;-68
2022/04/10 01:31:46;;;;;;;13.05;2.05;;;2.50;99.90;;;;;;5047486;28;20032;-68
2022/04/10 01:34:16;;;;;;;15.88;2.00;;;2.50;99.90;;;;;;5046113;28;20033;-68
2022/04/10 01:36:43;;;;;;;11.52;2.45;;;2.50;99.90;;;;;;5047022;28;20366;-68
2022/04/10 01:39:11;;;;;;;11.30;2.25;;;2.40;99.90;;;;;;5048829;28;20536;-68
2022/04/10 01:41:37;;;;;;;13.20;2.03;;;2.40;99.90;;;;;;5029997;28;20376;-68
2022/04/10 01:44:07;;;;;;;11.85;2.40;;;2.30;99.90;;;;;;5047965;28;20883;-68
2022/04/10 01:46:34;;;;;;;11.82;1.80;;;2.40;99.90;;;;;;5077459;28;20044;-68
2022/04/10 01:49:00;;;;;;;11.85;2.22;;;2.40;99.90;;;;;;5046694;28;20041;-69
2022/04/10 01:51:27;;;;;;;11.20;2.28;;;2.30;99.90;;;;;;5049704;28;20502;-68
2022/04/10 01:53:54;;;;;;;12.27;2.13;;;2.30;99.90;;;;;;5047007;28;20040;-68
2022/04/10 01:56:20;;;;;;;11.73;2.35;;;2.30;99.90;;;;;;5049593;28;20060;-68
2022/04/10 01:58:47;;;;;;;11.88;2.72;;;2.20;99.90;;;;;;5029800;28;20068;-68
2022/04/10 02:01:15;;;;;;;11.98;2.25;;;2.20;99.90;;;;;;5028030;28;20102;-68
2022/04/10 02:03:41;;;;;;;12.90;2.13;;;2.20;99.90;;;;;;5027036;28;20048;-68
2022/04/10 02:06:08;;;;;;;12.35;2.03;;;2.20;99.90;;;;;;5045555;28;20124;-68
2022/04/10 02:08:35;;;;;;;16.40;2.10;;;2.20;99.90;;;;;;5043331;28;20037;-68
2022/04/10 02:11:08;;;;;;;12.73;1.98;;;2.10;99.90;;;;;;5044175;28;20048;-68
2022/04/10 02:13:33;;;;;;;12.23;2.63;;;2.10;99.90;;;;;;5046151;28;20064;-68
2022/04/10 02:15:59;;;;;;;12.00;2.03;;;2.00;99.90;;;;;;5047190;28;20529;-68
2022/04/10 02:18:25;;;;;;;12.88;1.83;;;2.00;99.90;;;;;;5048844;28;20069;-68
2022/04/10 02:20:51;;;;;;;8.27;2.00;;;2.00;99.90;;;;;;5046580;28;20040;-68
2022/04/10 02:23:17;;;;;;;12.95;1.95;;;2.00;99.90;;;;;;5053130;28;20064;-68
2022/04/10 02:25:42;;;;;;;11.18;2.15;;;1.90;99.90;;;;;;5047495;28;20631;-68
2022/04/10 02:28:08;;;;;;;13.07;2.40;;;1.90;99.90;;;;;;5047001;28;20040;-68
2022/04/10 02:30:34;;;;;;;15.38;2.58;;;1.90;99.90;;;;;;5027513;28;20040;-68
2022/04/10 02:33:00;;;;;;;9.18;2.00;;;1.90;99.90;;;;;;5044287;28;20079;-68
2022/04/10 02:35:26;;;;;;;14.50;2.38;;;1.90;99.90;;;;;;5044164;28;20098;-68
2022/04/10 02:37:52;;;;;;;9.80;2.75;;;1.80;99.90;;;;;;5046086;28;20350;-68
2022/04/10 02:40:18;;;;;;;8.95;1.88;;;1.90;99.90;;;;;;5045627;28;21008;-68
2022/04/10 02:42:44;;;;;;;15.02;2.42;;;1.90;99.90;;;;;;5045965;28;20033;-68
2022/04/10 02:45:11;;;;;;;9.48;1.75;;;1.80;99.90;;;;;;5044033;28;20037;-67
2022/04/10 02:47:37;;;;;;;13.82;2.00;;;1.80;99.90;;;;;;5049242;28;20130;-68
2022/04/10 02:50:04;;;;;;;13.85;1.83;;;1.80;99.90;;;;;;5060525;28;20041;-68
2022/04/10 02:52:30;;;;;;;11.52;1.95;;;1.80;99.90;;;;;;5044725;28;20080;-68
2022/04/10 02:54:56;;;;;;;12.68;1.83;;;1.80;99.90;;;;;;5046495;28;20126;-67
2022/04/10 02:57:21;;;;;;;13.98;2.25;;;1.70;99.90;;;;;;5028892;28;20056;-67
2022/04/10 02:59:47;;;;;;;9.75;1.92;;;1.70;99.90;;;;;;5044339;28;20106;-68
2022/04/10 03:02:13;;;;;;;12.57;2.70;;;1.70;99.90;;;;;;5044095;28;20045;-68
2022/04/10 03:04:38;;;;;;;13.50;2.13;;;1.70;99.90;;;;;;5048321;28;20708;-68
2022/04/10 03:07:04;;;;;;;8.82;1.70;;;1.70;99.90;;;;;;5045632;28;20098;-68
2022/04/10 03:09:30;;;;;;;10.73;2.05;;;1.70;99.90;;;;;;5044144;28;20041;-68
2022/04/10 03:11:56;;;;;;;14.13;2.10;;;1.70;99.90;;;;;;5046711;28;20059;-68
2022/04/10 03:14:21;;;;;;;17.02;2.00;;;1.70;99.90;;;;;;5046821;28;20064;-68
2022/04/10 03:16:47;;;;;;;9.88;2.17;;;1.70;99.90;;;;;;5046426;28;20510;-67
2022/04/10 03:19:13;;;;;;;14.65;2.85;;;1.70;99.90;;;;;;5045599;28;20144;-68
2022/04/10 03:21:38;;;;;;;11.73;2.03;;;1.70;99.90;;;;;;5046863;28;20048;-68
2022/04/10 03:24:04;;;;;;;11.30;2.28;;;1.70;99.90;;;;;;5060078;28;20191;-68
2022/04/10 03:26:30;;;;;;;8.73;2.65;;;1.80;99.90;;;;;;5043424;28;20098;-67
2022/04/10 03:28:56;;;;;;;14.60;2.15;;;1.80;99.90;;;;;;5049281;28;20451;-67
2022/04/10 03:31:23;;;;;;;9.55;1.50;;;1.80;99.90;;;;;;5045902;28;20172;-67
2022/04/10 03:33:52;;;;;;;11.30;2.03;;;1.90;99.90;;;;;;5046245;28;20399;-67
2022/04/10 03:36:18;;;;;;;10.40;1.65;;;1.90;99.90;;;;;;5044236;28;20048;-68
2022/04/10 03:38:44;;;;;;;11.35;1.63;;;2.00;99.90;;;;;;5046497;28;20029;-67
2022/04/10 03:41:10;;;;;;;14.73;2.60;;;2.00;99.90;;;;;;5047037;28;20033;-68
2022/04/10 03:43:36;;;;;;;11.75;1.65;;;2.10;99.90;;;;;;5045261;28;20048;-68
2022/04/10 03:46:02;;;;;;;12.82;2.70;;;2.20;99.90;;;;;;5044382;28;20056;-68
2022/04/10 03:48:29;;;;;;;13.23;2.53;;;2.30;99.90;;;;;;5044244;28;20179;-68
2022/04/10 03:50:55;;;;;;;6.55;1.27;;;2.40;99.90;;;;;;5045052;28;20180;-68
2022/04/10 03:53:21;;;;;;;10.38;1.70;;;2.40;99.90;;;;;;5045478;28;20091;-68
2022/04/10 03:55:47;;;;;;;11.68;1.60;;;2.50;99.90;;;;;;5044348;28;20062;-67
2022/04/10 03:58:14;;;;;;;5.88;1.35;;;2.50;99.90;;;;;;5044437;28;20040;-68
2022/04/10 04:00:39;;;;;;;8.70;2.03;;;2.60;99.90;;;;;;5047104;28;20041;-68
2022/04/10 04:03:05;;;;;;;8.23;1.65;;;2.60;99.90;;;;;;5044873;28;20102;-67
2022/04/10 04:05:31;;;;;;;7.72;1.48;;;2.60;99.90;;;;;;5045558;28;20055;-67
2022/04/10 04:07:58;;;;;;;8.00;1.30;;;2.60;99.90;;;;;;5046179;28;20408;-67
2022/04/10 04:10:24;;;;;;;7.28;1.20;;;2.60;99.90;;;;;;5046076;28;20086;-65
2022/04/10 04:12:50;;;;;;;7.82;1.27;;;2.60;99.90;;;;;;5043669;28;20033;-65
2022/04/10 04:15:15;;;;;;;6.90;0.98;;;2.50;99.90;;;;;;5047879;28;20518;-66
2022/04/10 04:17:41;;;;;;;7.03;1.13;;;2.50;99.90;;;;;;5043246;28;20068;-66
2022/04/10 04:20:08;;;;;;;4.40;0.75;;;2.50;99.90;;;;;;5044508;28;20053;-66
2022/04/10 04:22:35;;;;;;;9.55;1.10;;;2.40;99.90;;;;;;5044480;28;20651;-66
2022/04/10 04:25:01;;;;;;;6.95;0.85;;;2.50;99.90;;;;;;5044680;28;20069;-66
2022/04/10 04:27:27;;;;;;;5.97;0.73;;;2.50;99.90;;;;;;5044273;28;20174;-66
2022/04/10 04:29:52;;;;;;;4.93;1.02;;;2.40;99.90;;;;;;5046249;28;20608;-66
2022/04/10 04:32:18;;;;;;;5.60;1.00;;;2.50;99.90;;;;;;5047449;28;20059;-66
2022/04/10 04:34:44;;;;;;;4.38;0.90;;;2.50;99.90;;;;;;5044021;28;20036;-66
2022/04/10 04:37:09;;;;;;;3.90;0.80;;;2.50;99.90;;;;;;5045006;28;20049;-66
2022/04/10 04:39:36;;;;;;;5.88;0.77;;;2.40;99.90;;;;;;5045729;28;20161;-66
2022/04/10 04:42:02;;;;;;;4.93;1.00;;;2.30;99.90;;;;;;5043295;28;20633;-66
2022/04/10 04:44:30;;;;;;;4.20;1.02;;;2.30;99.90;;;;;;5044774;28;20095;-66
2022/04/10 04:46:59;;;;;;;4.80;0.98;;;2.20;99.90;;;;;;5045190;28;20556;-66
2022/04/10 04:49:26;;;;;;;2.78;0.60;;;2.20;99.90;;;;;;5050681;28;20025;-66
2022/04/10 04:51:52;;;;;;;6.00;0.95;;;2.10;99.90;;;;;;5049667;28;20110;-66
2022/04/10 04:54:17;;;;;;;7.10;1.20;;;2.10;99.90;;;;;;5054647;28;20074;-66
2022/04/10 04:56:43;;;;;;;3.25;0.65;;;2.10;99.90;;;;;;5046365;28;20037;-66
2022/04/10 04:59:08;;;;;;;4.70;0.90;;;2.00;99.90;;;;;;5045216;28;20109;-67
2022/04/10 05:01:34;;;;;;;5.95;1.02;;;2.00;99.90;;;;;;5049999;28;20053;-68
2022/04/10 05:04:00;;;;;;;4.28;0.90;;;2.00;99.90;;;;;;5049088;28;20061;-68
2022/04/10 05:06:26;;;;;;;6.57;1.15;;;2.00;99.90;;;;;;5050857;28;20171;-68
2022/04/10 05:08:52;;;;;;;6.45;1.13;;;2.00;99.90;;;;;;5053219;28;20041;-68
2022/04/10 05:11:18;;;;;;;8.13;1.65;;;1.90;99.90;;;;;;5052348;28;20043;-66
2022/04/10 05:13:44;;;;;;;8.52;1.33;;;2.00;99.90;;;;;;5033122;28;20041;-68
2022/04/10 05:16:10;;;;;;;8.80;1.42;;;2.10;99.90;;;;;;5033018;28;20361;-67
2022/04/10 05:18:36;;;;;;;8.75;1.55;;;2.10;99.90;;;;;;5051166;28;20053;-67
2022/04/10 05:21:02;;;;;;;9.98;1.85;;;2.20;99.90;;;;;;5050795;28;20041;-68
2022/04/10 05:23:28;;;;;;;8.68;2.00;;;2.20;99.90;;;;;;5050140;28;20140;-68
2022/04/10 05:25:54;;;;;;;13.75;1.75;;;2.30;99.90;;;;;;5052741;28;20144;-68
2022/04/10 05:28:20;;;;;;;11.30;1.85;;;2.30;99.90;;;;;;5049097;28;20049;-68
2022/04/10 05:30:46;;;;;;;12.20;1.65;;;2.40;99.90;;;;;;5049743;28;20460;-68
2022/04/10 05:33:12;;;;;;;4.45;0.98;;;2.50;99.90;;;;;;5048684;28;20037;-69
2022/04/10 05:35:38;;;;;;;8.68;1.02;;;2.60;99.90;;;;;;5065832;28;20124;-69
2022/04/10 05:38:04;;;;;;;8.57;1.42;;;2.80;99.90;;;;;;5047744;28;20141;-67
2022/04/10 05:40:30;;;;;;;6.07;0.88;;;2.90;99.90;;;;;;5049662;28;20513;-68
2022/04/10 05:42:56;;;;;;;4.90;1.00;;;3.00;99.90;;;;;;5048081;28;20065;-69
2022/04/10 05:45:22;;;;;;;6.40;1.17;;;3.10;99.90;;;;;;5032847;28;20054;-69
2022/04/10 05:47:47;;;;;;;4.40;1.13;;;3.20;99.90;;;;;;5031130;28;20060;-69
2022/04/10 05:50:14;;;;;;;6.03;1.10;;;3.40;99.90;;;;;;5048485;28;20049;-67
2022/04/10 05:52:45;;;;;;;5.10;0.90;;;3.60;99.90;;;;;;5050788;28;20047;-69
2022/04/10 05:55:12;;;;;;;4.07;0.77;;;3.70;99.90;;;;;;5077567;27;20182;-68
2022/04/10 05:57:38;;;;;;;4.13;0.90;;;3.80;99.90;;;;;;5048489;28;20617;-68
2022/04/10 06:00:07;;;;;;;5.93;1.30;;;3.80;99.90;;;;;;5048229;28;20053;-68
2022/04/10 06:02:33;;;;;;;8.93;1.05;;;3.70;99.90;;;;;;5047664;28;20134;-68
2022/04/10 06:04:59;;;;;;;5.47;0.90;;;3.70;99.90;;;;;;5080083;28;20036;-68
2022/04/10 06:07:25;;;;;;;4.75;0.77;;;3.70;99.90;;;;;;5047713;28;20064;-68
2022/04/10 06:09:51;;;;;;;5.25;1.05;;;3.70;99.90;;;;;;5047797;28;20041;-68
2022/04/10 06:12:17;;;;;;;9.63;0.90;;;3.70;99.90;;;;;;5050934;28;20033;-68
2022/04/10 06:14:43;;;;;;;5.28;0.80;;;3.80;99.90;;;;;;5046249;28;20531;-68
2022/04/10 06:17:08;;;;;;;4.80;1.05;;;3.90;99.90;;;;;;5046850;28;20057;-68
2022/04/10 06:19:34;;;;;;;4.20;0.73;;;4.00;99.90;;;;;;5082223;28;20477;-68
2022/04/10 06:22:00;;;;;;;6.60;1.05;;;4.10;99.90;;;;;;5051744;28;20041;-68
2022/04/10 06:24:27;;;;;;;4.53;1.25;;;4.20;99.90;;;;;;5050902;28;20033;-68
2022/04/10 06:26:54;;;;;;;5.05;0.85;;;4.40;99.90;;;;;;5049190;28;20565;-68
2022/04/10 06:29:20;;;;;;;4.05;0.75;;;4.50;99.90;;;;;;5046867;28;20049;-68
2022/04/10 06:31:47;;;;;;;4.70;0.80;;;4.50;99.90;;;;;;5044804;28;20143;-69
2022/04/10 06:34:12;;;;;;;4.40;0.88;;;4.60;99.90;;;;;;5046259;28;20399;-68
2022/04/10 06:36:39;;;;;;;4.40;0.85;;;4.50;99.90;;;;;;5049267;28;20061;-68
2022/04/10 06:39:05;;;;;;;4.53;0.95;;;4.60;99.90;;;;;;5049270;28;20061;-68
2022/04/10 06:41:31;;;;;;;5.88;1.00;;;4.80;99.90;;;;;;5048502;28;20528;-68
2022/04/10 06:43:57;;;;;;;4.47;0.80;;;4.90;99.90;;;;;;5050835;28;20189;-68
2022/04/10 06:46:23;;;;;;;7.03;0.98;;;5.10;99.90;;;;;;5036952;28;20116;-68
2022/04/10 06:48:49;;;;;;;5.82;0.70;;;5.20;99.90;;;;;;5049333;28;20159;-68
2022/04/10 06:51:18;;;;;;;7.75;0.82;;;5.30;99.90;;;;;;5048543;28;20144;-68
2022/04/10 06:53:45;;;;;;;7.72;1.70;;;5.50;99.90;;;;;;5048357;28;20056;-68
2022/04/10 06:56:10;;;;;;;4.80;0.80;;;5.60;99.90;;;;;;5041210;28;20492;-68
2022/04/10 06:58:36;;;;;;;4.82;1.10;;;5.80;99.90;;;;;;5046809;28;20033;-68
2022/04/10 07:01:02;;;;;;;4.07;0.90;;;6.00;99.90;;;;;;5045434;28;20468;-68
2022/04/10 07:03:28;;;;;;;6.65;1.17;;;6.40;99.90;;;;;;5043355;28;20048;-68
2022/04/10 07:05:54;;;;;;;7.82;2.60;;;6.70;99.90;;;;;;5037460;28;20118;-68
2022/04/10 07:08:20;;;;;;;6.65;1.70;;;6.90;99.90;;;;;;5043326;28;20044;-68
2022/04/10 07:10:46;;;;;;;7.25;1.08;;;7.00;99.90;;;;;;5040879;28;20108;-68
2022/04/10 07:13:19;;;;;;;4.07;0.65;;;7.20;99.90;;;;;;5042598;28;20033;-68
2022/04/10 07:15:46;;;;;;;6.15;0.80;;;7.60;99.90;;;;;;5039802;28;20227;-68
2022/04/10 07:18:12;;;;;;;6.47;0.77;;;8.20;99.90;;;;;;5043041;28;20076;-68
2022/04/10 07:20:38;;;;;;;4.85;0.85;;;8.60;99.90;;;;;;5044913;28;20269;-68
2022/04/10 07:25:48;;;;;;;9.30;1.27;;;8.70;99.90;;;;;;5080399;28;20107;-69
2022/04/10 07:28:16;;;;;;;6.35;1.00;;;8.60;99.90;;;;;;5049762;28;20095;-69
2022/04/10 07:30:42;;;;;;;6.93;0.93;;;8.50;99.90;;;;;;5028942;28;20464;-69
2022/04/10 07:33:08;;;;;;;4.53;0.73;;;8.20;99.90;;;;;;5043879;28;20068;-69
2022/04/10 07:35:35;;;;;;;10.48;1.25;;;8.30;99.90;;;;;;5041309;28;20887;-69
2022/04/10 07:38:01;;;;;;;8.10;1.20;;;9.20;99.90;;;;;;5033520;28;20060;-69
2022/04/10 07:40:26;;;;;;;7.05;0.98;;;9.80;99.90;;;;;;5049855;28;20128;-69
2022/04/10 07:42:53;;;;;;;6.63;1.05;;;10.20;99.90;;;;;;5032598;28;20187;-69
2022/04/10 07:48:03;;;;;;;6.70;0.80;;;9.00;99.90;;;;;;5047753;28;20060;-69
2022/04/10 07:50:29;;;;;;;6.10;1.05;;;8.40;99.90;;;;;;5045836;28;20037;-69
2022/04/10 07:52:56;;;;;;;5.43;1.15;;;7.90;99.90;;;;;;5048803;28;20143;-69
2022/04/10 07:55:22;;;;;;;4.68;0.88;;;7.70;99.90;;;;;;5047169;28;20077;-69
2022/04/10 07:57:51;;;;;;;8.25;1.92;;;8.30;99.90;;;;;;5012397;28;20087;-69
2022/04/10 08:00:18;;;;;;;6.30;0.70;;;9.10;99.90;;;;;;5043838;28;20044;-70
2022/04/10 08:02:48;;;;;;;6.78;1.33;;;9.80;99.90;;;;;;5042379;28;20128;-69
2022/04/10 08:05:15;;;;;;;10.05;1.65;;;10.40;99.60;;;;;;5044796;28;20491;-69
2022/04/10 08:07:43;;;;;;;7.80;1.30;;;11.00;98.80;;;;;;5042833;28;20128;-69
2022/04/10 08:10:10;;;;;;;6.75;1.10;;;11.60;98.10;;;;;;5040582;28;20048;-69
2022/04/10 08:12:36;;;;;;;6.78;1.05;;;11.90;95.50;;;;;;5043245;28;20076;-69
2022/04/10 08:15:02;;;;;;;4.47;1.23;;;12.30;96.40;;;;;;5043978;28;20084;-69
2022/04/10 08:17:28;;;;;;;8.75;1.45;;;12.70;96.00;;;;;;5036672;28;20042;-69
2022/04/10 08:19:54;;;;;;;7.03;1.10;;;12.80;93.80;;;;;;5046267;28;20439;-69
2022/04/10 08:22:24;;;;;;;6.65;1.10;;;12.70;92.70;;;;;;5045287;28;20052;-69
2022/04/10 08:24:50;;;;;;;6.55;1.33;;;12.50;92.40;;;;;;5048719;28;20067;-69
2022/04/10 08:27:15;;;;;;;7.05;1.05;;;12.90;92.60;;;;;;5047041;28;20110;-69
2022/04/10 08:29:41;;;;;;;8.45;1.58;;;13.00;91.40;;;;;;5047994;28;20542;-70
2022/04/10 08:32:07;;;;;;;8.43;1.40;;;11.90;86.90;;;;;;5046950;28;20049;-70
2022/04/10 08:34:33;;;;;;;7.88;1.27;;;11.80;90.10;;;;;;5047720;28;20037;-70
2022/04/10 08:37:05;;;;;;;6.10;0.88;;;12.20;89.10;;;;;;5045898;28;20484;-70
2022/04/10 08:39:31;;;;;;;8.25;1.42;;;12.70;89.80;;;;;;5047616;28;20086;-69
2022/04/10 08:42:01;;;;;;;8.40;1.38;;;13.10;86.80;;;;;;5046145;28;20068;-69
2022/04/10 08:44:28;;;;;;;5.93;1.38;;;12.90;85.10;;;;;;5044326;28;20479;-70
2022/04/10 08:46:55;;;;;;;6.22;1.33;;;11.40;83.30;;;;;;5045391;28;20057;-69
2022/04/10 08:49:23;;;;;;;6.55;1.23;;;10.10;87.30;;;;;;5045673;28;20120;-68
2022/04/10 08:51:51;;;;;;;7.55;1.30;;;8.90;90.70;;;;;;5047426;28;20083;-69
2022/04/10 08:54:19;;;;;;;8.38;1.63;;;8.20;92.90;;;;;;5028386;28;20099;-69
2022/04/10 08:56:45;;;;;;;5.78;1.15;;;7.80;94.90;;;;;;5048212;28;20040;-69
2022/04/10 08:59:10;;;;;;;7.75;1.55;;;7.90;96.80;;;;;;5045564;28;23607;-70
2022/04/10 09:01:36;;;;;;;8.20;1.40;;;8.80;98.50;;;;;;5074424;28;20064;-70
2022/04/10 09:04:02;;;;;;;10.63;1.20;;;9.90;97.50;;;;;;5045998;28;20036;-70
2022/04/10 09:06:28;;;;;;;9.60;1.42;;;10.70;95.00;;;;;;5047444;28;20112;-70
2022/04/10 09:09:13;;;;;;;5.32;1.20;;;11.20;92.60;;;;;;5047551;28;20040;-69
2022/04/10 09:11:40;;;;;;;9.25;1.58;;;11.60;90.30;;;;;;5037560;28;20099;-69
2022/04/10 09:14:06;;;;;;;9.35;1.23;;;11.70;88.90;;;;;;5043990;28;20033;-69
2022/04/10 09:16:32;;;;;;;7.43;1.08;;;12.10;86.80;;;;;;5079225;28;20801;-69
2022/04/10 09:19:04;;;;;;;9.70;1.90;;;12.20;85.10;;;;;;5049056;28;20072;-69
2022/04/10 09:21:35;;;;;;;9.25;1.77;;;12.50;85.90;;;;;;5048951;28;20515;-69
2022/04/10 09:24:07;;;;;;;7.47;1.50;;;13.00;83.30;;;;;;5045899;28;20033;-69
2022/04/10 09:26:47;;;;;;;9.18;1.60;;;13.30;81.00;;;;;;5027215;28;20067;-70
2022/04/10 09:29:15;;;;;;;11.43;1.45;;;13.30;74.90;;;;;;5052238;28;20044;-70
2022/04/10 09:31:41;;;;;;;9.75;1.70;;;12.50;78.70;;;;;;5043734;28;20508;-70
2022/04/10 09:34:13;;;;;;;11.20;1.65;;;11.60;80.90;;;;;;5051965;28;20112;-70
2022/04/10 09:36:42;;;;;;;7.63;1.50;;;10.90;82.20;;;;;;5043250;28;20072;-70
2022/04/10 09:39:09;;;;;;;6.13;1.10;;;10.30;83.10;;;;;;5049639;28;20049;-70
2022/04/10 09:41:36;;;;;;;8.15;1.33;;;10.30;85.40;;;;;;5054567;28;20485;-70
2022/04/10 09:44:21;;;;;;;5.97;0.93;;;10.70;81.70;;;;;;5051818;28;20124;-70
2022/04/10 09:47:06;;;;;;;5.82;1.30;;;11.70;83.30;;;;;;5028229;28;21108;-70
2022/04/10 09:49:36;;;;;;;3.78;0.70;;;12.60;78.40;;;;;;5083344;28;20041;-70
2022/04/10 09:52:08;;;;;;;6.45;1.25;;;13.00;77.10;;;;;;5075499;28;20166;-70
2022/04/10 09:54:40;;;;;;;7.00;1.20;;;13.10;73.90;;;;;;5051659;28;20044;-70
2022/04/10 09:57:20;;;;;;;6.70;1.10;;;13.40;77.30;;;;;;5044977;28;20068;-70
2022/04/10 09:59:51;;;;;;;6.03;0.98;;;13.10;72.10;;;;;;5050496;28;20033;-70
2022/04/10 10:02:23;;;;;;;6.40;0.80;;;12.40;72.40;;;;;;5046857;28;20124;-70
2022/04/10 10:04:49;;;;;;;6.57;0.90;;;11.80;73.70;;;;;;5050404;28;20037;-70
2022/04/10 10:07:17;;;;;;;7.95;0.90;;;11.60;76.50;;;;;;5046008;28;20077;-70
2022/04/10 10:09:44;;;;;;;6.85;1.10;;;11.50;75.90;;;;;;5048435;28;20049;-70
2022/04/10 10:12:11;;;;;;;5.93;1.00;;;11.30;76.90;;;;;;5046484;28;20591;-70
2022/04/10 10:14:38;;;;;;;5.18;0.90;;;11.00;75.70;;;;;;5049850;28;20045;-70
2022/04/10 10:17:05;;;;;;;6.22;1.15;;;10.50;76.90;;;;;;5029031;28;20053;-70
2022/04/10 10:19:35;;;;;;;6.80;1.15;;;10.80;79.30;;;;;;5048307;28;20158;-70
2022/04/10 10:22:03;;;;;;;6.93;1.10;;;11.40;80.40;;;;;;5048142;28;20396;-70
2022/04/10 10:24:58;;;;;;;6.47;1.25;;;12.10;81.00;;;;;;5065664;28;20057;-70
2022/04/10 10:27:45;;;;;;;6.45;1.10;;;12.80;73.90;;;;;;5072002;28;20390;-70
2022/04/10 10:30:18;;;;;;;6.32;1.25;;;13.20;77.00;;;;;;5048189;28;20129;-70
2022/04/10 10:32:47;;;;;;;5.60;1.25;;;13.50;75.10;;;;;;5048756;28;20037;-70
2022/04/10 10:35:33;;;;;;;6.35;1.15;;;13.50;73.70;;;;;;5048161;28;20037;-71
2022/04/10 10:38:00;;;;;;;7.35;1.10;;;13.10;71.60;;;;;;5048677;28;20041;-71
2022/04/10 10:40:26;;;;;;;5.10;1.10;;;12.40;70.70;;;;;;5048472;28;20099;-70
2022/04/10 10:42:55;;;;;;;5.65;0.90;;;12.20;73.20;;;;;;5046020;28;20049;-71
2022/04/10 10:45:37;;;;;;;4.72;1.05;;;12.30;72.00;;;;;;5062741;28;20044;-70
2022/04/10 10:48:23;;;;;;;5.85;0.85;;;12.40;69.40;;;;;;5044818;28;20132;-70
2022/04/10 10:50:53;;;;;;;7.20;1.23;;;12.00;72.10;;;;;;5049970;28;20045;-70
2022/04/10 10:53:47;;;;;;;6.65;0.93;;;11.50;74.70;;;;;;5048017;28;20043;-69
2022/04/10 10:56:17;;;;;;;6.13;1.02;;;11.20;76.50;;;;;;5046503;28;20060;-69
2022/04/10 10:58:44;;;;;;;6.03;1.10;;;11.40;78.00;;;;;;5050253;28;20056;-70
2022/04/10 11:01:17;;;;;;;3.00;0.90;;;12.00;76.20;;;;;;5048004;28;20048;-70
2022/04/10 11:04:20;;;;;;;8.10;1.08;;;12.60;73.90;;;;;;5049773;28;20047;-69
2022/04/10 11:06:50;;;;;;;5.15;0.85;;;12.90;69.10;;;;;;5004646;28;20042;-69
2022/04/10 11:09:21;;;;;;;4.85;0.77;;;12.90;69.20;;;;;;5068282;28;20056;-69
2022/04/10 11:11:48;;;;;;;4.97;0.77;;;12.90;69.30;;;;;;5030905;28;20048;-70
2022/04/10 11:14:38;;;;;;;7.78;1.00;;;12.60;69.80;;;;;;5048188;28;20040;-70
2022/04/10 11:17:27;;;;;;;4.65;1.00;;;12.30;67.00;;;;;;5077745;28;20048;-70
2022/04/10 11:20:05;;;;;;;4.22;0.80;;;12.10;68.90;;;;;;5048737;28;20051;-70
2022/04/10 11:22:36;;;;;;;5.07;0.85;;;12.10;70.10;;;;;;5047787;28;20079;-70
2022/04/10 11:25:09;;;;;;;6.18;1.13;;;12.60;71.30;;;;;;5059834;28;20048;-70
2022/04/10 11:27:54;;;;;;;4.75;0.60;;;13.00;68.10;;;;;;5031043;28;20131;-70
2022/04/10 11:30:21;;;;;;;3.58;0.60;;;13.50;63.00;;;;;;5047914;28;20453;-70
2022/04/10 11:33:04;;;;;;;3.55;0.70;;;13.90;65.70;;;;;;5046889;28;20044;-70
2022/04/10 11:35:38;;;;;;;5.78;0.65;;;14.30;63.00;;;;;;5045301;28;20056;-70
2022/04/10 11:38:13;;;;;;;5.45;0.82;;;14.20;63.20;;;;;;5048093;28;20416;-70
2022/04/10 11:40:41;;;;;;;4.97;0.70;;;14.50;64.20;;;;;;5045725;28;20156;-70
2022/04/10 11:43:08;;;;;;;5.32;1.08;;;14.60;62.90;;;;;;5048914;28;20072;-70
2022/04/10 11:45:35;;;;;;;4.15;0.85;;;14.10;63.90;;;;;;5046303;28;20479;-71
2022/04/10 11:48:04;;;;;;;5.15;0.80;;;13.30;65.30;;;;;;5078840;28;20052;-70
2022/04/10 11:50:30;;;;;;;6.90;1.15;;;12.70;66.80;;;;;;5045538;28;20033;-70
2022/04/10 11:52:58;;;;;;;5.70;0.85;;;12.60;68.30;;;;;;5044554;28;20099;-70
2022/04/10 11:55:48;;;;;;;2.55;0.60;;;13.10;66.70;;;;;;5045116;28;20045;-70
2022/04/10 11:58:19;;;;;;;5.93;0.88;;;13.80;63.60;;;;;;5051019;28;20124;-70
2022/04/10 12:00:45;;;;;;;2.70;0.55;;;14.00;66.60;;;;;;5042521;28;20060;-70
2022/04/10 12:03:11;;;;;;;5.35;0.88;;;14.30;63.50;;;;;;5045710;28;20492;-69
2022/04/10 12:05:37;;;;;;;4.57;0.90;;;14.10;63.40;;;;;;5046322;28;20175;-70
2022/04/10 12:08:05;;;;;;;5.20;0.90;;;13.40;62.70;;;;;;5046975;28;20138;-70
2022/04/10 12:10:31;;;;;;;5.15;0.57;;;12.80;62.60;;;;;;5046379;28;20186;-70
2022/04/10 12:12:58;;;;;;;4.07;0.98;;;12.80;65.20;;;;;;5049903;28;20404;-70
2022/04/10 12:15:24;;;;;;;5.53;0.90;;;13.70;65.40;;;;;;5050964;28;20037;-70
2022/04/10 12:18:08;;;;;;;3.63;0.60;;;14.50;63.40;;;;;;5078740;28;20083;-71
2022/04/10 12:20:42;;;;;;;5.00;1.00;;;14.20;62.00;;;;;;5031226;28;20057;-70
2022/04/10 12:23:25;;;;;;;3.92;1.05;;;13.50;62.30;;;;;;5079649;28;20167;-70
2022/04/10 12:25:53;;;;;;;4.60;0.52;;;13.70;62.20;;;;;;5047523;28;20049;-70
2022/04/10 12:28:19;;;;;;;4.10;0.57;;;14.40;62.50;;;;;;5047782;28;20041;-70
2022/04/10 12:30:46;;;;;;;5.45;0.80;;;14.90;60.80;;;;;;5048751;28;20079;-70
2022/04/10 12:33:13;;;;;;;4.05;0.60;;;15.40;58.80;;;;;;5047043;28;20134;-70
2022/04/10 12:35:40;;;;;;;2.35;0.52;;;16.00;57.00;;;;;;5048837;28;20036;-70
2022/04/10 12:38:06;;;;;;;6.32;0.80;;;16.30;56.20;;;;;;5051189;28;20051;-70
2022/04/10 12:40:35;;;;;;;3.83;0.80;;;15.70;57.60;;;;;;5048492;28;20052;-69
2022/04/10 12:43:03;;;;;;;4.43;0.80;;;15.30;59.00;;;;;;5053289;28;20054;-69
2022/04/10 12:45:30;;;;;;;3.65;0.70;;;14.90;58.10;;;;;;5049727;28;20060;-69
2022/04/10 12:47:57;;;;;;;4.25;0.60;;;15.50;59.50;;;;;;5048210;28;20049;-70
2022/04/10 12:50:24;;;;;;;4.40;0.60;;;16.00;55.20;;;;;;5047779;28;20041;-70
2022/04/10 12:52:52;;;;;;;4.50;0.70;;;16.30;55.70;;;;;;5047540;28;20120;-70
2022/04/10 12:55:36;;;;;;;4.80;0.70;;;15.90;54.60;;;;;;5052718;28;20467;-70
2022/04/10 12:58:09;;;;;;;4.45;0.75;;;15.00;55.00;;;;;;5055097;28;20130;-70
2022/04/10 13:00:43;;;;;;;6.75;1.13;;;14.00;55.60;;;;;;5053342;28;20055;-70